New Orleans, Louisiana
Current Conditions -  °F | °C
As of 7:35 AM on Saturday 25 Oct 2014 (Local Time) from KVSH Reporting Station
Clear Clear  
Wind Chill: 17°   Ceiling: Unl
Heat Index: 17°   Visibility: 10mi
Dew Point:   Wind: 3mph
Humidity: 59%   Direction: 60°ENE
Pressure: 30.14"   Gusts: NA
Location:  29.95°N, 90.08°W
Report Text: KVSH 251235Z AUTO 06003KT 10SM CLR 17/09 A3014 RMK AO1
Loading
Personal Weather Stations






























Interactive Weather Map
Tropical Storm Tracking
New forecast layout! Learn more

10-Day Weather Forecast

Advertisements
Track Severe Weather on mobile